Weather at Sheremetyevo International Airport

Public forecast

Using degrees Celsius for public forecast. Weather courtesy of forecast.io.

Current aviation weather report (METAR) for Sheremetyevo International Airport

Retrieved 2021/08/02 12:30 UTC (1 minute ago):

UUEE 021230Z 19004MPS 9999 -SHRA SCT033CB 27/18 Q1006 R24C/CLRD62 R24R/CLRD62 NOSIG

Aviation forecast (TAF) for Sheremetyevo International Airport

Retrieved 2021/08/02 12:21 UTC (10 minutes ago):

TAF UUEE 021059Z 0212/0312 17005MPS 9999 BKN030 TX28/0212Z TN17/0302Z TEMPO 0212/0219 VRB22MPS 1500 TSRA SQ FEW007 BKN016CB TEMPO 0219/0224 23010G17MPS -SHRA FEW006 BKN016CB PROB40 TEMPO 0219/0224 -TSRA BKN016CB BECMG 0300/0301 27005MPS